createdAt,value
2018-11-02T00:01:09.811Z,49.40
2018-11-02T00:03:35.852Z,49.50
2018-11-02T00:06:02.440Z,49.50
2018-11-02T00:08:33.830Z,49.50
2018-11-02T00:11:00.431Z,49.70
2018-11-02T00:13:26.509Z,49.60
2018-11-02T00:15:57.848Z,49.70
2018-11-02T00:18:23.861Z,49.60
2018-11-02T00:20:51.930Z,49.60
2018-11-02T00:23:21.847Z,49.70
2018-11-02T00:25:51.954Z,49.80
2018-11-02T00:28:17.979Z,49.70
2018-11-02T00:30:45.847Z,49.70
2018-11-02T00:33:11.873Z,49.70
2018-11-02T00:35:39.945Z,49.80
2018-11-02T00:38:09.871Z,49.70
2018-11-02T00:40:39.981Z,50.00
2018-11-02T00:43:09.917Z,50.10
2018-11-02T00:45:40.028Z,50.10
2018-11-02T00:48:09.959Z,50.00
2018-11-02T00:50:39.846Z,49.80
2018-11-02T00:53:09.954Z,49.90
2018-11-02T00:55:39.877Z,49.70
2018-11-02T00:58:09.991Z,50.00
2018-11-02T01:03:08.194Z,50.00
2018-11-02T01:05:40.059Z,50.00
2018-11-02T01:10:38.806Z,49.90
2018-11-02T01:13:04.766Z,49.90
2018-11-02T01:15:33.862Z,50.00
2018-11-02T01:18:00.440Z,49.90
2018-11-02T01:20:27.969Z,49.90
2018-11-02T01:22:54.573Z,50.10
2018-11-02T01:25:20.621Z,50.10
2018-11-02T01:27:51.975Z,49.90
2018-11-02T01:30:21.899Z,50.00
2018-11-02T01:32:52.006Z,49.90
2018-11-02T01:35:21.933Z,49.90
2018-11-02T01:37:52.035Z,49.90
2018-11-02T01:40:18.087Z,49.80
2018-11-02T01:42:45.933Z,50.20
2018-11-02T01:45:16.046Z,50.20
2018-11-02T01:47:42.091Z,50.10
2018-11-02T01:50:08.100Z,50.10
2018-11-02T01:52:40.052Z,50.00
2018-11-02T01:55:06.099Z,50.00
2018-11-02T01:57:32.102Z,50.10
2018-11-02T02:00:04.084Z,50.00
2018-11-02T02:02:30.081Z,50.00
2018-11-02T02:04:56.100Z,50.10
2018-11-02T02:07:22.143Z,50.10
2018-11-02T02:09:48.167Z,50.30
2018-11-02T02:12:14.204Z,50.10
2018-11-02T02:14:40.203Z,50.20
2018-11-02T02:17:06.231Z,50.20
2018-11-02T02:19:34.097Z,50.10
2018-11-02T02:22:00.111Z,50.10
2018-11-02T02:24:26.706Z,50.10
2018-11-02T02:26:58.102Z,50.10
2018-11-02T02:29:28.019Z,49.90
2018-11-02T02:31:57.943Z,50.10
2018-11-02T02:34:23.957Z,50.00
2018-11-02T02:36:52.045Z,50.10
2018-11-02T02:39:18.053Z,50.00
2018-11-02T02:41:45.907Z,50.00
2018-11-02T02:44:16.040Z,49.90
2018-11-02T02:46:45.942Z,50.00
2018-11-02T02:49:11.983Z,50.00
2018-11-02T02:51:38.023Z,49.90
2018-11-02T02:54:04.023Z,50.00
2018-11-02T02:56:30.055Z,50.10
2018-11-02T02:58:58.115Z,50.00
2018-11-02T03:01:28.029Z,49.90
2018-11-02T03:03:57.952Z,49.90
2018-11-02T03:06:23.961Z,50.40
2018-11-02T03:08:49.990Z,49.80
2018-11-02T03:13:48.798Z,49.90
2018-11-02T03:16:16.035Z,49.90
2018-11-02T03:18:42.139Z,49.90
2018-11-02T03:21:09.935Z,50.00
2018-11-02T03:23:40.049Z,49.90
2018-11-02T03:26:06.660Z,50.00
2018-11-02T03:28:32.712Z,50.00
2018-11-02T03:31:04.058Z,50.00
2018-11-02T03:33:30.083Z,50.00
2018-11-02T03:35:57.966Z,50.20
2018-11-02T03:38:24.535Z,50.10
2018-11-02T03:40:50.412Z,50.10
2018-11-02T03:43:16.993Z,50.10
2018-11-02T03:45:46.147Z,50.00
2018-11-02T03:48:16.064Z,50.20
2018-11-02T03:50:45.980Z,50.30
2018-11-02T03:53:15.958Z,50.00
2018-11-02T03:55:43.196Z,50.00
2018-11-02T03:58:09.160Z,50.00
2018-11-02T04:00:35.730Z,49.90
2018-11-02T04:03:04.070Z,49.90
2018-11-02T04:05:33.986Z,50.00
2018-11-02T04:08:04.142Z,49.90
2018-11-02T04:10:30.135Z,49.90
2018-11-02T04:12:56.147Z,50.10
2018-11-02T04:15:22.165Z,49.90
2018-11-02T04:17:48.204Z,49.90
2018-11-02T04:20:14.844Z,49.90
2018-11-02T04:22:45.996Z,50.00
2018-11-02T04:25:16.095Z,50.10
2018-11-02T04:27:46.027Z,50.00
2018-11-02T04:30:16.138Z,49.90
2018-11-02T04:32:42.712Z,50.10
2018-11-02T04:35:10.024Z,50.00
2018-11-02T04:37:36.036Z,50.00
2018-11-02T04:40:02.079Z,49.90
2018-11-02T04:42:28.108Z,50.00
2018-11-02T04:44:54.111Z,50.10
2018-11-02T04:47:22.181Z,50.20
2018-11-02T04:49:48.208Z,50.20
2018-11-02T04:52:14.232Z,50.10
2018-11-02T04:54:40.802Z,50.10
2018-11-02T04:59:39.273Z,50.10
2018-11-02T05:02:05.866Z,50.20
2018-11-02T05:04:34.222Z,50.20
2018-11-02T05:07:00.212Z,50.10
2018-11-02T05:09:26.230Z,50.00
2018-11-02T05:11:58.191Z,49.90
2018-11-02T05:14:24.768Z,49.90
2018-11-02T05:16:51.978Z,49.90
2018-11-02T05:19:18.711Z,50.00
2018-11-02T05:21:46.199Z,50.00
2018-11-02T05:24:12.197Z,50.10
2018-11-02T05:26:38.245Z,50.20
2018-11-02T05:29:10.176Z,50.00
2018-11-02T05:31:36.776Z,50.10
2018-11-02T05:34:02.611Z,50.10
2018-11-02T05:36:28.443Z,50.10
2018-11-02T05:38:58.161Z,49.90
2018-11-02T05:41:24.193Z,49.90
2018-11-02T05:43:52.052Z,50.10
2018-11-02T05:46:22.168Z,50.10
2018-11-02T05:48:48.212Z,50.10
2018-11-02T05:51:16.061Z,50.20
2018-11-02T05:53:42.091Z,50.20
2018-11-02T05:56:10.164Z,50.10
2018-11-02T05:58:40.067Z,50.00
2018-11-02T06:01:06.105Z,50.00
2018-11-02T06:06:04.497Z,50.20
2018-11-02T06:08:34.203Z,50.20
2018-11-02T06:11:00.769Z,50.20
2018-11-02T06:13:26.626Z,50.20
2018-11-02T06:15:52.704Z,50.10
2018-11-02T06:18:18.704Z,50.00
2018-11-02T06:20:46.154Z,50.20
2018-11-02T06:23:12.179Z,50.10
2018-11-02T06:25:38.218Z,50.10
2018-11-02T06:28:04.795Z,50.00
2018-11-02T06:30:30.703Z,50.00
2018-11-02T06:32:57.310Z,50.10
2018-11-02T06:35:28.236Z,50.10
2018-11-02T06:37:54.266Z,50.10
2018-11-02T06:40:20.288Z,50.00
2018-11-02T06:42:52.257Z,50.10
2018-11-02T06:45:18.291Z,50.10
2018-11-02T06:47:44.877Z,50.00
2018-11-02T06:50:10.946Z,50.00
2018-11-02T06:52:40.232Z,50.00
2018-11-02T06:55:06.825Z,49.90
2018-11-02T06:57:32.684Z,49.90
2018-11-02T06:59:58.921Z,50.00
2018-11-02T07:02:28.223Z,50.10
2018-11-02T07:04:58.123Z,50.00
2018-11-02T07:07:24.221Z,50.10
2018-11-02T07:09:50.172Z,50.10
2018-11-02T07:12:16.199Z,50.20
2018-11-02T07:14:46.119Z,50.20
2018-11-02T07:17:12.699Z,50.30
2018-11-02T07:19:40.068Z,50.30
2018-11-02T07:22:06.032Z,50.20
2018-11-02T07:24:32.608Z,50.30
2018-11-02T07:27:04.220Z,50.30
2018-11-02T07:32:02.820Z,50.40
2018-11-02T07:34:34.198Z,50.30
2018-11-02T07:37:00.186Z,50.20
2018-11-02T07:39:26.211Z,50.20
2018-11-02T07:41:52.238Z,50.10
2018-11-02T07:44:18.259Z,50.10
2018-11-02T07:46:46.122Z,50.00
2018-11-02T07:49:12.145Z,50.00
2018-11-02T07:51:38.173Z,50.10
2018-11-02T07:54:04.194Z,50.10
2018-11-02T07:56:30.223Z,50.80
2018-11-02T07:58:58.288Z,50.20
2018-11-02T08:01:24.319Z,50.20
2018-11-02T08:03:52.181Z,50.00
2018-11-02T08:06:22.306Z,50.10
2018-11-02T08:08:48.933Z,50.30
2018-11-02T08:11:15.017Z,50.20
2018-11-02T08:13:46.311Z,50.00
2018-11-02T08:16:12.326Z,50.00
2018-11-02T08:18:38.358Z,50.00
2018-11-02T08:21:04.226Z,50.10
2018-11-02T08:23:30.193Z,50.00
2018-11-02T08:25:56.219Z,50.10
2018-11-02T08:28:22.242Z,50.10
2018-11-02T08:30:52.148Z,50.10
2018-11-02T08:33:22.285Z,50.10
2018-11-02T08:38:20.671Z,50.10
2018-11-02T08:40:46.705Z,50.20
2018-11-02T08:43:16.203Z,50.30
2018-11-02T08:45:42.218Z,50.20
2018-11-02T08:48:08.251Z,50.30
2018-11-02T08:50:40.220Z,50.40
2018-11-02T08:53:10.333Z,50.30
2018-11-02T08:55:36.363Z,50.30
2018-11-02T08:58:04.329Z,50.30
2018-11-02T09:00:30.246Z,50.30
2018-11-02T09:02:56.882Z,50.20
2018-11-02T09:05:22.905Z,50.20
2018-11-02T09:07:48.956Z,50.20
2018-11-02T09:10:14.942Z,50.10
2018-11-02T09:12:40.979Z,50.10
2018-11-02T09:15:07.603Z,50.10
2018-11-02T09:17:33.630Z,50.10
2018-11-02T09:19:59.670Z,50.30
2018-11-02T09:22:28.354Z,50.30
2018-11-02T09:24:58.263Z,50.20
2018-11-02T09:27:24.204Z,50.20
2018-11-02T09:29:50.122Z,50.20
2018-11-02T09:32:22.159Z,50.20
2018-11-02T09:34:48.013Z,50.20
2018-11-02T09:37:16.356Z,50.20
2018-11-02T09:39:42.389Z,50.20
2018-11-02T09:42:08.977Z,50.10
2018-11-02T09:44:40.367Z,50.10
2018-11-02T09:47:07.001Z,50.20
2018-11-02T09:52:05.314Z,50.00
2018-11-02T09:54:31.216Z,50.10
2018-11-02T09:56:57.238Z,50.10
2018-11-02T09:59:23.304Z,50.30
2018-11-02T10:04:21.486Z,50.30
2018-11-02T10:06:47.478Z,50.30
